Northwest Alabama Regional Airport
KMSL : now visible

Airfield :











YOU CAN JOIN US ON...

 
LOGIN :

Register | Disclaimer

   EN    FR    IT 

 









Legend :    VFR   Marginal VFR   IFR   Intensive IFR   Very Intensive IFR
Visi :
Ceiling :
>= 8 km
>= 3000ft
5 to 8 km
1000 to 3000 ft
1500m to 5 km
500 to 1000 ft
800 to 1500m
200 to 500 ft
< 800m
< 200 ft
Symbols :   Thunderstorms  Fog  Heavy snow  Heavy precipitations  Wind > 20 kt






- Airport Elevation : 551 ft
- IATA code : MSL


KMSL - Northwest Alabama Regional

CURRENT METAR :
  • 242036Z AUTO 09012G17KT 10SM -RA FEW010 OVC029 21/18 A2983 RMK AO2 RAB11 P0000 T02060183

EXPIRED METARs :
  • 241953Z AUTO 12012G20KT 10SM FEW007 SCT070 OVC110 21/19 A2982 RMK AO2 PK WND 14026/1940 RAE41 SLP094 P0004 T02060189
  • 241908Z AUTO 12012KT 6SM -RA BR FEW006 BKN070 OVC110 20/18 A2984 RMK AO2 P0003 T02000183
  • 241900Z AUTO 11011KT 2 1/2SM +RA BR FEW006 BKN070 OVC090 19/18 A2985 RMK AO2 P0002 T01940178
  • 241853Z AUTO 12010KT 3SM +RA BR FEW006 SCT043 OVC065 19/18 A2985 RMK AO2 SLP105 P0034 T01940178
  • 241841Z AUTO 12010KT 3SM RA BR FEW006 BKN070 OVC095 19/18 A2986 RMK AO2 P0028 T01940178
  • 241829Z AUTO 12014G20KT 1 1/2SM +RA BR FEW009 BKN065 OVC095 19/18 A2986 RMK AO2 P0023 T01890178
  • 241753Z AUTO 12008KT 4SM RA BR FEW070 OVC100 19/17 A2989 RMK AO2 SLP116 P0010 6//// T01890172 10189 20150 58019

TAF KMSL
Valid from the 24 at 18:00 until the 25 at 18:00 UTC


241724Z 2418/2518 08007KT 4SM SHRA BR SCT004 OVC009
TEMPO 2418/2420 2SM +SHRA BR SCT004 OVC007
FM242100 07006KT 3SM -SHRA BR SCT004 OVC009
FM250700 33003KT 4SM BR SCT002 OVC005
FM251500 31002KT P6SM SCT004 OVC008
KZME FIR / North America



MET'MAP, your aeronautical weather chart ! - Copyright ORBIFLY December 2007 - Disclaimer

ORBIFLY MET'MAP TEAM :

Programming & Development : Alexandra Zaïnal
Concept & original design : Baudouin d'Aumeries
Assistance for programming : Marc-Olivier Méhu
Technical & hardware support : Manuel Goepfert

Contact : metmap@orbifly.com




SOURCES & CREDITS :

   NOAA       Earth
Advisory